Time;durP1;ratioP1;P1;durP2;ratioP2;P2;SDS_P1;SDS_P2;PMS_P1;PMS_P2;Temp;Humidity;BMP_temperature;BMP_pressure;BME280_temperature;BME280_humidity;BME280_pressure;Samples;Min_cycle;Max_cycle;Signal;HPM_P1;HPM_P2
2022/05/29 00:01:15;;;;;;;;;;;;;;;;;;5060910;27;19928;-76
2022/05/29 00:03:40;;;;;;;;;;;;;;;;;;5028500;28;19917;-76
2022/05/29 00:06:06;;;;;;;;;;;;;;;;;;5012135;28;20306;-76
2022/05/29 00:08:33;;;;;;;;;;;;;;;;;;5028388;28;19917;-76
2022/05/29 00:10:59;;;;;;;;;;;;;;;;;;5061434;28;19917;-76
2022/05/29 00:13:25;;;;;;;;;;;;;;;;;;5045103;28;20399;-76
2022/05/29 00:15:50;;;;;;;;;;;;;;;;;;5011849;28;19925;-76
2022/05/29 00:18:16;;;;;;;;;;;;;;;;;;5044364;28;19921;-76
2022/05/29 00:20:44;;;;;;;;;;;;;;;;;;5010635;28;19973;-76
2022/05/29 00:23:11;;;;;;;;;;;;;;;;;;5027742;28;19917;-76
2022/05/29 00:25:37;;;;;;;;;;;;;;;;;;5027865;28;19964;-76
2022/05/29 00:28:03;;;;;;;;;;;;;;;;;;5011663;28;20447;-76
2022/05/29 00:30:29;;;;;;;;;;;;;;;;;;5012754;28;19925;-76
2022/05/29 00:32:55;;;;;;;;;;;;;;;;;;5011552;28;19917;-76
2022/05/29 00:35:22;;;;;;;;;;;;;;;;;;5011625;28;20000;-76
2022/05/29 00:37:48;;;;;;;;;;;;;;;;;;5027841;28;19918;-76
2022/05/29 00:40:22;;;;;;;;;;;;;;;;;;5010603;28;20297;-76
2022/05/29 00:42:47;;;;;;;;;;;;;;;;;;5044268;28;20409;-76
2022/05/29 00:45:16;;;;;;;;;;;;;;;;;;5027662;28;19968;-76
2022/05/29 00:47:42;;;;;;;;;;;;;;;;;;5027547;28;19917;-76
2022/05/29 00:50:07;;;;;;;;;;;;;;;;;;5010888;28;19921;-76
2022/05/29 00:52:34;;;;;;;;;;;;;;;;;;5011180;28;20359;-76
2022/05/29 00:55:06;;;;;;;;;;;;;;;;;;5027449;28;19925;-76
2022/05/29 00:57:54;;;;;;;;;;;;;;;;;;5027207;28;20344;-76
2022/05/29 01:00:24;;;;;;;;;;;;;;;;;;5027780;28;19921;-76
2022/05/29 01:02:50;;;;;;;;;;;;;;;;;;5042774;28;19922;-76
2022/05/29 01:05:16;;;;;;;;;;;;;;;;;;5027007;28;19921;-76
2022/05/29 01:07:43;;;;;;;;;;;;;;;;;;5011707;28;19925;-76
2022/05/29 01:10:09;;;;;;;;;;;;;;;;;;5027112;28;20374;-76
2022/05/29 01:12:34;;;;;;;;;;;;;;;;;;5027272;28;19913;-76
2022/05/29 01:15:25;;;;;;;;;;;;;;;;;;5043924;28;20373;-76
2022/05/29 01:18:15;;;;;;;;;;;;;;;;;;5027129;28;20592;-76
2022/05/29 01:21:01;;;;;;;;;;;;;;;;;;5001316;28;20359;-76
2022/05/29 01:23:40;;;;;;;;;;;;;;;;;;5060077;28;20326;-76
2022/05/29 01:26:14;;;;;;;;;;;;;;;;;;5011713;28;19942;-76
2022/05/29 01:28:43;;;;;;;;;;;;;;;;;;5011823;28;19961;-76
2022/05/29 01:31:09;;;;;;;;;;;;;;;;;;5026542;28;19917;-76
2022/05/29 01:33:56;;;;;;;;;;;;;;;;;;5059194;28;20417;-76
2022/05/29 01:36:22;;;;;;;;;;;;;;;;;;5060010;28;19924;-76
2022/05/29 01:38:52;;;;;;;;;;;;;;;;;;5043766;28;19917;-76
2022/05/29 01:41:22;;;;;;;;;;;;;;;;;;5026913;28;19928;-76
2022/05/29 01:43:55;;;;;;;;;;;;;;;;;;5026702;28;19918;-76
2022/05/29 01:46:27;;;;;;;;;;;;;;;;;;5010179;28;20278;-76
2022/05/29 01:49:13;;;;;;;;;;;;;;;;;;5011371;28;19918;-76
2022/05/29 01:51:54;;;;;;;;;;;;;;;;;;5011141;28;19917;-76
2022/05/29 01:54:28;;;;;;;;;;;;;;;;;;5026303;28;20419;-76
2022/05/29 01:57:01;;;;;;;;;;;;;;;;;;5026509;28;19917;-77
2022/05/29 01:59:36;;;;;;;;;;;;;;;;;;5026635;28;19947;-76
2022/05/29 02:02:07;;;;;;;;;;;;;;;;;;5059727;28;20369;-76
2022/05/29 02:04:36;;;;;;;;;;;;;;;;;;5041954;28;20299;-76
2022/05/29 02:09:53;;;;;;;;;;;;;;;;;;5010994;28;19918;-76
2022/05/29 02:12:23;;;;;;;;;;;;;;;;;;5025962;28;19918;-76
2022/05/29 02:14:55;;;;;;;;;;;;;;;;;;5009784;28;19917;-76
2022/05/29 02:17:23;;;;;;;;;;;;;;;;;;5026070;28;19922;-76
2022/05/29 02:19:51;;;;;;;;;;;;;;;;;;5026221;28;19921;-76
2022/05/29 02:22:23;;;;;;;;;;;;;;;;;;5009849;28;20027;-76
2022/05/29 02:24:50;;;;;;;;;;;;;;;;;;5026150;28;19917;-76
2022/05/29 02:27:31;;;;;;;;;;;;;;;;;;5009791;28;19924;-76
2022/05/29 02:29:58;;;;;;;;;;;;;;;;;;5043037;28;19921;-76
2022/05/29 02:32:28;;;;;;;;;;;;;;;;;;5020838;28;19920;-77
2022/05/29 02:35:20;;;;;;;;;;;;;;;;;;5013396;28;20055;-76
2022/05/29 02:37:53;;;;;;;;;;;;;;;;;;5033328;27;19967;-77
2022/05/29 02:40:18;;;;;;;;;;;;;;;;;;5007496;28;19945;-78
2022/05/29 02:42:43;;;;;;;;;;;;;;;;;;5025032;28;19917;-77
2022/05/29 02:45:15;;;;;;;;;;;;;;;;;;5026865;28;19914;-77
2022/05/29 02:48:01;;;;;;;;;;;;;;;;;;5011145;28;19932;-77
2022/05/29 02:50:27;;;;;;;;;;;;;;;;;;4993742;28;19925;-77
2022/05/29 02:52:53;;;;;;;;;;;;;;;;;;5042791;28;20419;-77
2022/05/29 02:55:20;;;;;;;;;;;;;;;;;;5026227;28;19964;-77
2022/05/29 02:57:50;;;;;;;;;;;;;;;;;;4993215;28;19921;-76
2022/05/29 03:00:17;;;;;;;;;;;;;;;;;;5009471;28;19976;-77
2022/05/29 03:02:55;;;;;;;;;;;;;;;;;;5009798;28;19925;-77
2022/05/29 03:05:24;;;;;;;;;;;;;;;;;;5025835;28;19924;-77
2022/05/29 03:07:59;;;;;;;;;;;;;;;;;;5039224;28;20294;-77
2022/05/29 03:10:42;;;;;;;;;;;;;;;;;;5012736;28;20488;-77
2022/05/29 03:13:11;;;;;;;;;;;;;;;;;;5014032;28;20039;-77
2022/05/29 03:15:55;;;;;;;;;;;;;;;;;;5029474;28;19918;-77
2022/05/29 03:18:23;;;;;;;;;;;;;;;;;;5035436;27;19918;-77
2022/05/29 03:20:58;;;;;;;;;;;;;;;;;;5025945;28;19928;-77
2022/05/29 03:23:32;;;;;;;;;;;;;;;;;;5025360;28;20435;-77
2022/05/29 03:26:01;;;;;;;;;;;;;;;;;;5025553;28;19917;-77
2022/05/29 03:28:30;;;;;;;;;;;;;;;;;;5009335;28;19922;-77
2022/05/29 03:30:59;;;;;;;;;;;;;;;;;;4993145;28;19922;-77
2022/05/29 03:33:25;;;;;;;;;;;;;;;;;;5009298;28;19967;-77
2022/05/29 03:35:53;;;;;;;;;;;;;;;;;;4993028;28;19922;-77
2022/05/29 03:38:19;;;;;;;;;;;;;;;;;;5042255;28;19967;-77
2022/05/29 03:40:45;;;;;;;;;;;;;;;;;;5010294;28;19925;-77
2022/05/29 03:43:14;;;;;;;;;;;;;;;;;;5010438;28;20263;-77
2022/05/29 03:45:39;;;;;;;;;;;;;;;;;;5025780;27;19918;-77
2022/05/29 03:48:05;;;;;;;;;;;;;;;;;;5026063;28;19967;-77
2022/05/29 03:50:36;;;;;;;;;;;;;;;;;;5009433;28;19918;-77
2022/05/29 03:53:03;;;;;;;;;;;;;;;;;;4992824;28;19963;-77
2022/05/29 03:55:31;;;;;;;;;;;;;;;;;;4991301;28;20267;-77
2022/05/29 03:57:58;;;;;;;;;;;;;;;;;;5008549;28;19929;-77
2022/05/29 04:00:24;;;;;;;;;;;;;;;;;;5011027;28;19930;-77
2022/05/29 04:02:52;;;;;;;;;;;;;;;;;;5013024;28;19918;-77
2022/05/29 04:05:22;;;;;;;;;;;;;;;;;;5028374;28;19924;-76
2022/05/29 04:13:17;;;;;;;;;;;;;;;;;;5044934;28;19951;-76
2022/05/29 04:15:45;;;;;;;;;;;;;;;;;;5028075;28;20004;-77
2022/05/29 04:18:11;;;;;;;;;;;;;;;;;;5044735;28;19974;-76
2022/05/29 04:20:37;;;;;;;;;;;;;;;;;;5028048;28;19925;-77
2022/05/29 04:23:03;;;;;;;;;;;;;;;;;;5028083;28;19918;-77
2022/05/29 04:25:29;;;;;;;;;;;;;;;;;;5011469;28;20046;-76
2022/05/29 04:27:55;;;;;;;;;;;;;;;;;;5011651;28;19918;-76
2022/05/29 04:30:21;;;;;;;;;;;;;;;;;;5009036;28;19925;-76
2022/05/29 04:33:02;;;;;;;;;;;;;;;;;;5008279;28;19918;-76
2022/05/29 04:35:35;;;;;;;;;;;;;;;;;;5024035;28;20291;-76
2022/05/29 04:38:01;;;;;;;;;;;;;;;;;;5093989;28;20379;-76
2022/05/29 04:40:26;;;;;;;;;;;;;;;;;;5094541;28;20004;-77
2022/05/29 04:42:52;;;;;;;;;;;;;;;;;;5041009;28;19924;-77
2022/05/29 04:45:17;;;;;;;;;;;;;;;;;;5094321;28;20249;-76
2022/05/29 04:47:43;;;;;;;;;;;;;;;;;;5041062;28;19918;-77
2022/05/29 04:50:08;;;;;;;;;;;;;;;;;;5040692;28;19918;-77
2022/05/29 04:52:34;;;;;;;;;;;;;;;;;;5041038;28;19918;-76
2022/05/29 04:55:01;;;;;;;;;;;;;;;;;;4992688;28;20513;-76
2022/05/29 04:57:27;;;;;;;;;;;;;;;;;;5093768;28;19925;-77
2022/05/29 04:59:53;;;;;;;;;;;;;;;;;;5076701;28;19975;-76
2022/05/29 05:02:18;;;;;;;;;;;;;;;;;;4992438;28;19986;-76
2022/05/29 05:04:44;;;;;;;;;;;;;;;;;;5024126;28;19924;-76
2022/05/29 05:07:09;;;;;;;;;;;;;;;;;;4992041;28;19956;-76
2022/05/29 05:09:34;;;;;;;;;;;;;;;;;;5024086;28;19982;-76
2022/05/29 05:12:00;;;;;;;;;;;;;;;;;;5023977;28;19921;-76
2022/05/29 05:14:26;;;;;;;;;;;;;;;;;;5007679;28;19917;-76
2022/05/29 05:16:53;;;;;;;;;;;;;;;;;;4992446;28;19918;-76
2022/05/29 05:19:20;;;;;;;;;;;;;;;;;;4996365;28;19920;-77
2022/05/29 05:21:45;;;;;;;;;;;;;;;;;;5011852;28;19928;-77
2022/05/29 05:24:11;;;;;;;;;;;;;;;;;;5010661;28;20000;-76
2022/05/29 05:26:37;;;;;;;;;;;;;;;;;;5010720;28;19922;-76
2022/05/29 05:29:02;;;;;;;;;;;;;;;;;;5010598;28;19918;-76
2022/05/29 05:31:28;;;;;;;;;;;;;;;;;;5010468;28;19986;-77
2022/05/29 05:33:53;;;;;;;;;;;;;;;;;;5011849;28;19917;-79
2022/05/29 05:36:20;;;;;;;;;;;;;;;;;;5008666;28;20432;-79
2022/05/29 05:38:46;;;;;;;;;;;;;;;;;;5010081;28;19917;-77
2022/05/29 05:41:13;;;;;;;;;;;;;;;;;;5079695;28;19974;-79
2022/05/29 05:43:39;;;;;;;;;;;;;;;;;;5078937;28;19918;-79
2022/05/29 05:46:08;;;;;;;;;;;;;;;;;;5079187;28;19939;-78
2022/05/29 05:48:33;;;;;;;;;;;;;;;;;;5009502;28;19918;-79
2022/05/29 05:50:59;;;;;;;;;;;;;;;;;;5077955;28;20390;-78
2022/05/29 05:53:24;;;;;;;;;;;;;;;;;;4993110;28;19966;-77
2022/05/29 05:55:50;;;;;;;;;;;;;;;;;;5011083;28;20458;-75
2022/05/29 05:58:15;;;;;;;;;;;;;;;;;;5008431;28;19936;-76
2022/05/29 06:00:43;;;;;;;;;;;;;;;;;;4991999;28;20284;-79
2022/05/29 06:03:08;;;;;;;;;;;;;;;;;;5005931;28;19917;-78
2022/05/29 06:05:37;;;;;;;;;;;;;;;;;;5005787;28;19922;-77
2022/05/29 06:08:03;;;;;;;;;;;;;;;;;;5005860;28;19918;-78
2022/05/29 06:10:28;;;;;;;;;;;;;;;;;;4989861;28;19924;-77
2022/05/29 06:12:59;;;;;;;;;;;;;;;;;;5005279;28;20336;-77
2022/05/29 06:15:27;;;;;;;;;;;;;;;;;;5008457;28;19949;-78
2022/05/29 06:17:52;;;;;;;;;;;;;;;;;;4994859;28;19918;-78
2022/05/29 06:20:18;;;;;;;;;;;;;;;;;;4993025;28;19929;-77
2022/05/29 06:22:43;;;;;;;;;;;;;;;;;;5028284;28;19925;-80
2022/05/29 06:25:10;;;;;;;;;;;;;;;;;;4990509;28;19918;-79
2022/05/29 06:27:40;;;;;;;;;;;;;;;;;;5010081;28;19918;-79
2022/05/29 06:30:07;;;;;;;;;;;;;;;;;;5010622;28;19917;-79
2022/05/29 06:32:34;;;;;;;;;;;;;;;;;;5006903;28;19994;-79
2022/05/29 06:35:00;;;;;;;;;;;;;;;;;;5021345;28;19928;-75
2022/05/29 06:37:25;;;;;;;;;;;;;;;;;;5005506;28;20281;-75
2022/05/29 06:39:52;;;;;;;;;;;;;;;;;;5025717;28;20016;-76
2022/05/29 06:42:19;;;;;;;;;;;;;;;;;;5025998;28;19917;-74
2022/05/29 06:44:44;;;;;;;;;;;;;;;;;;5048562;28;19932;-76
2022/05/29 06:47:13;;;;;;;;;;;;;;;;;;5021395;28;19924;-77
2022/05/29 06:49:38;;;;;;;;;;;;;;;;;;5064562;28;19921;-79
2022/05/29 06:52:11;;;;;;;;;;;;;;;;;;5013918;28;19924;-78
2022/05/29 06:54:39;;;;;;;;;;;;;;;;;;5033767;28;19917;-78
2022/05/29 06:57:06;;;;;;;;;;;;;;;;;;5030775;28;19917;-77
2022/05/29 07:06:58;;;;;;;;;;;;;;;;;;5030728;28;19913;-76
2022/05/29 07:07:50;;;;;;;;;;;;;;;;;;4991076;28;19922;-76
2022/05/29 07:10:16;;;;;;;;;;;;;;;;;;4989629;28;19965;-76
2022/05/29 07:12:43;;;;;;;;;;;;;;;;;;5005691;28;19962;-75
2022/05/29 07:15:10;;;;;;;;;;;;;;;;;;5005913;28;19922;-76
2022/05/29 07:17:35;;;;;;;;;;;;;;;;;;5005894;28;20312;-76
2022/05/29 07:20:01;;;;;;;;;;;;;;;;;;4989627;28;20052;-76
2022/05/29 07:22:29;;;;;;;;;;;;;;;;;;5041222;27;19932;-76
2022/05/29 07:24:54;;;;;;;;;;;;;;;;;;5042374;28;19918;-76
2022/05/29 07:27:20;;;;;;;;;;;;;;;;;;5010142;28;19924;-76
2022/05/29 07:29:45;;;;;;;;;;;;;;;;;;5008801;28;20059;-76
2022/05/29 07:32:11;;;;;;;;;;;;;;;;;;5013639;28;20275;-76
2022/05/29 07:34:37;;;;;;;;;;;;;;;;;;5013284;28;19929;-76
2022/05/29 07:37:05;;;;;;;;;;;;;;;;;;4993680;28;19918;-76
2022/05/29 07:39:34;;;;;;;;;;;;;;;;;;5007040;28;19922;-76
2022/05/29 07:44:44;;;;;;;;;;;;;;;;;;5015206;28;20004;-76
2022/05/29 07:47:09;;;;;;;;;;;;;;;;;;5011792;28;19953;-75
2022/05/29 07:49:37;;;;;;;;;;;;;;;;;;5013092;28;19917;-76
2022/05/29 07:52:03;;;;;;;;;;;;;;;;;;5011824;28;19918;-76
2022/05/29 07:54:29;;;;;;;;;;;;;;;;;;5011997;28;19917;-76
2022/05/29 07:56:55;;;;;;;;;;;;;;;;;;5027866;28;19918;-76
2022/05/29 07:59:22;;;;;;;;;;;;;;;;;;5013074;28;19924;-76
2022/05/29 08:01:48;;;;;;;;;;;;;;;;;;5027974;28;19932;-76
2022/05/29 08:04:14;;;;;;;;;;;;;;;;;;5028246;28;19917;-76
2022/05/29 08:06:40;;;;;;;;;;;;;;;;;;5028327;28;19966;-76
2022/05/29 08:09:07;;;;;;;;;;;;;;;;;;5011349;28;19917;-76
2022/05/29 08:11:34;;;;;;;;;;;;;;;;;;5028082;28;19955;-76
2022/05/29 08:14:01;;;;;;;;;;;;;;;;;;5011589;28;19956;-76
2022/05/29 08:16:26;;;;;;;;;;;;;;;;;;5012029;28;19917;-76
2022/05/29 08:18:53;;;;;;;;;;;;;;;;;;5028638;28;20285;-77
2022/05/29 08:21:20;;;;;;;;;;;;;;;;;;5014630;28;20393;-76
2022/05/29 08:30:37;;;;;;;;;;;;;;;;;;5015122;28;19924;-76
2022/05/29 08:32:02;;;;;;;;;;;;;;;;;;5031139;28;19917;-76
2022/05/29 08:34:29;;;;;;;;;;;;;;;;;;5019475;28;19917;-76
2022/05/29 08:36:55;;;;;;;;;;;;;;;;;;5027888;28;19939;-76
2022/05/29 08:39:22;;;;;;;;;;;;;;;;;;5027780;28;20394;-77
2022/05/29 08:41:51;;;;;;;;;;;;;;;;;;5010942;28;20426;-76
2022/05/29 08:44:20;;;;;;;;;;;;;;;;;;5027988;28;19925;-77
2022/05/29 08:46:52;;;;;;;;;;;;;;;;;;5027965;28;19990;-77
2022/05/29 08:49:20;;;;;;;;;;;;;;;;;;5012074;28;19921;-79
2022/05/29 08:51:55;;;;;;;;;;;;;;;;;;5012750;28;19929;-76
2022/05/29 08:54:40;;;;;;;;;;;;;;;;;;5027441;28;20259;-76
2022/05/29 08:57:07;;;;;;;;;;;;;;;;;;5060732;28;20006;-76
2022/05/29 08:59:49;;;;;;;;;;;;;;;;;;5060546;28;19924;-76
2022/05/29 09:02:33;;;;;;;;;;;;;;;;;;5011873;28;19917;-77
2022/05/29 09:05:08;;;;;;;;;;;;;;;;;;5044149;28;19917;-76
2022/05/29 09:07:35;;;;;;;;;;;;;;;;;;5027240;28;20012;-76
2022/05/29 09:10:04;;;;;;;;;;;;;;;;;;5010424;28;19924;-76
2022/05/29 09:12:36;;;;;;;;;;;;;;;;;;5062446;28;19918;-78
2022/05/29 09:15:06;;;;;;;;;;;;;;;;;;5012214;28;19924;-77
2022/05/29 09:17:38;;;;;;;;;;;;;;;;;;5046043;27;20507;-79
2022/05/29 09:20:09;;;;;;;;;;;;;;;;;;5030485;28;19926;-77
2022/05/29 09:22:40;;;;;;;;;;;;;;;;;;5017976;28;20436;-76
2022/05/29 09:25:22;;;;;;;;;;;;;;;;;;5048660;28;19917;-83
2022/05/29 09:27:49;;;;;;;;;;;;;;;;;;5033858;28;19963;-78
2022/05/29 09:30:16;;;;;;;;;;;;;;;;;;5018977;28;19924;-78
2022/05/29 09:32:56;;;;;;;;;;;;;;;;;;5020437;28;20015;-79
2022/05/29 09:35:40;;;;;;;;;;;;;;;;;;5003818;28;19973;-79
2022/05/29 09:38:07;;;;;;;;;;;;;;;;;;5063947;28;19922;-81
2022/05/29 09:40:49;;;;;;;;;;;;;;;;;;5066958;28;19966;-79
2022/05/29 09:43:16;;;;;;;;;;;;;;;;;;5046387;28;20329;-79
2022/05/29 09:45:42;;;;;;;;;;;;;;;;;;5030229;28;19917;-79
2022/05/29 09:51:10;;;;;;;;;;;;;;;;;;5016855;28;20375;-83
2022/05/29 09:53:42;;;;;;;;;;;;;;;;;;5030525;28;19914;-84
2022/05/29 09:56:08;;;;;;;;;;;;;;;;;;5013298;28;19941;-81
2022/05/29 09:58:38;;;;;;;;;;;;;;;;;;4997219;28;20031;-85
2022/05/29 10:01:05;;;;;;;;;;;;;;;;;;5015381;28;19929;-81
2022/05/29 10:03:38;;;;;;;;;;;;;;;;;;5013516;28;20388;-82
2022/05/29 10:06:24;;;;;;;;;;;;;;;;;;5029769;28;19926;-86
2022/05/29 10:08:50;;;;;;;;;;;;;;;;;;5063791;28;19917;-85
2022/05/29 10:11:21;;;;;;;;;;;;;;;;;;5031382;28;19924;-85
2022/05/29 10:13:48;;;;;;;;;;;;;;;;;;5030848;28;19925;-82
2022/05/29 10:16:32;;;;;;;;;;;;;;;;;;5030834;28;19925;-81
2022/05/29 10:18:58;;;;;;;;;;;;;;;;;;5032892;27;19928;-81
2022/05/29 10:21:27;;;;;;;;;;;;;;;;;;5080320;28;20307;-81
2022/05/29 10:24:09;;;;;;;;;;;;;;;;;;5081085;28;19924;-81
2022/05/29 10:26:36;;;;;;;;;;;;;;;;;;4994274;28;19925;-80
2022/05/29 10:29:15;;;;;;;;;;;;;;;;;;5079382;28;20394;-81
2022/05/29 10:31:41;;;;;;;;;;;;;;;;;;4995885;28;19925;-81
2022/05/29 10:34:06;;;;;;;;;;;;;;;;;;5012478;28;19918;-79
2022/05/29 10:36:31;;;;;;;;;;;;;;;;;;5027618;28;19963;-81
2022/05/29 10:39:06;;;;;;;;;;;;;;;;;;5011589;28;19929;-83
2022/05/29 10:41:36;;;;;;;;;;;;;;;;;;5045176;28;19974;-82
2022/05/29 10:44:04;;;;;;;;;;;;;;;;;;4995549;28;19918;-82
2022/05/29 10:46:57;;;;;;;;;;;;;;;;;;5011201;28;19925;-82
2022/05/29 10:49:27;;;;;;;;;;;;;;;;;;4998734;28;20062;-85
2022/05/29 10:52:16;;;;;;;;;;;;;;;;;;5012599;28;19918;-84
2022/05/29 10:54:49;;;;;;;;;;;;;;;;;;5011245;28;20367;-86
2022/05/29 10:57:20;;;;;;;;;;;;;;;;;;5014187;28;19926;-84
2022/05/29 11:00:04;;;;;;;;;;;;;;;;;;5049136;28;19925;-82
2022/05/29 11:05:53;;;;;;;;;;;;;;;;;;5030601;28;19918;-83
2022/05/29 11:08:30;;;;;;;;;;;;;;;;;;5034277;28;19989;-83
2022/05/29 11:11:15;;;;;;;;;;;;;;;;;;5031579;28;19926;-82
2022/05/29 11:13:59;;;;;;;;;;;;;;;;;;5014251;28;20013;-83
2022/05/29 11:16:37;;;;;;;;;;;;;;;;;;5047525;28;20383;-83
2022/05/29 11:19:21;;;;;;;;;;;;;;;;;;5062657;27;19924;-83
2022/05/29 11:22:05;;;;;;;;;;;;;;;;;;5050861;28;20004;-83
2022/05/29 11:25:06;;;;;;;;;;;;;;;;;;5051717;28;19917;-83
2022/05/29 11:28:04;;;;;;;;;;;;;;;;;;5034386;28;19918;-83
2022/05/29 11:30:32;;;;;;;;;;;;;;;;;;5088794;28;19922;-83
2022/05/29 11:33:09;;;;;;;;;;;;;;;;;;5062485;27;19929;-83
2022/05/29 11:35:44;;;;;;;;;;;;;;;;;;5033083;28;20029;-83
2022/05/29 11:38:15;;;;;;;;;;;;;;;;;;5014415;28;20023;-82
2022/05/29 11:40:43;;;;;;;;;;;;;;;;;;5083017;28;20012;-83
2022/05/29 11:43:18;;;;;;;;;;;;;;;;;;5083840;28;20012;-83
2022/05/29 11:51:25;;;;;;;;;;;;;;;;;;5030962;28;19924;-80
2022/05/29 11:54:02;;;;;;;;;;;;;;;;;;5083593;28;20436;-80
2022/05/29 11:56:36;;;;;;;;;;;;;;;;;;5013593;28;19925;-80
2022/05/29 11:59:09;;;;;;;;;;;;;;;;;;5083334;28;19957;-80
2022/05/29 12:01:38;;;;;;;;;;;;;;;;;;5056842;27;19922;-80
2022/05/29 12:04:04;;;;;;;;;;;;;;;;;;5013365;28;19925;-80
2022/05/29 12:06:29;;;;;;;;;;;;;;;;;;4997101;28;19918;-79
2022/05/29 12:08:54;;;;;;;;;;;;;;;;;;5028144;28;19918;-79
2022/05/29 12:11:29;;;;;;;;;;;;;;;;;;5012536;28;20283;-80
2022/05/29 12:14:05;;;;;;;;;;;;;;;;;;5012886;28;19974;-82
2022/05/29 12:16:31;;;;;;;;;;;;;;;;;;5011694;28;19918;-82
2022/05/29 12:18:57;;;;;;;;;;;;;;;;;;5028645;28;20367;-82
2022/05/29 12:21:36;;;;;;;;;;;;;;;;;;5011058;28;19922;-81
2022/05/29 12:24:13;;;;;;;;;;;;;;;;;;5012098;28;20005;-84
2022/05/29 12:26:41;;;;;;;;;;;;;;;;;;5011665;28;19917;-84
2022/05/29 12:29:17;;;;;;;;;;;;;;;;;;5028369;28;20439;-83
2022/05/29 12:32:00;;;;;;;;;;;;;;;;;;5011584;28;20388;-84
2022/05/29 12:34:25;;;;;;;;;;;;;;;;;;5011492;28;19987;-84
2022/05/29 12:37:05;;;;;;;;;;;;;;;;;;5011354;28;20005;-84
2022/05/29 12:39:31;;;;;;;;;;;;;;;;;;5011452;28;19918;-83
2022/05/29 12:41:56;;;;;;;;;;;;;;;;;;5045184;28;19925;-83
2022/05/29 12:44:36;;;;;;;;;;;;;;;;;;5044748;28;19928;-82
2022/05/29 12:47:02;;;;;;;;;;;;;;;;;;5045004;28;20284;-82
2022/05/29 12:49:47;;;;;;;;;;;;;;;;;;5028602;28;19925;-81
2022/05/29 12:52:17;;;;;;;;;;;;;;;;;;5011173;28;19925;-81
2022/05/29 12:54:42;;;;;;;;;;;;;;;;;;5011615;28;20004;-81
2022/05/29 12:57:17;;;;;;;;;;;;;;;;;;5011363;28;20006;-81
2022/05/29 12:59:53;;;;;;;;;;;;;;;;;;5044120;28;20016;-81
2022/05/29 13:02:19;;;;;;;;;;;;;;;;;;5024310;28;19925;-81
2022/05/29 13:05:07;;;;;;;;;;;;;;;;;;5011702;28;20020;-81
2022/05/29 13:07:56;;;;;;;;;;;;;;;;;;5028162;28;19917;-81
2022/05/29 13:10:27;;;;;;;;;;;;;;;;;;5057018;28;20314;-81
2022/05/29 13:13:13;;;;;;;;;;;;;;;;;;5081416;28;20017;-82
2022/05/29 13:15:41;;;;;;;;;;;;;;;;;;5099232;28;19918;-82
2022/05/29 13:21:17;;;;;;;;;;;;;;;;;;5058058;28;19929;-83
2022/05/29 13:23:46;;;;;;;;;;;;;;;;;;5035830;27;19922;-82
2022/05/29 13:26:32;;;;;;;;;;;;;;;;;;5035197;28;19943;-85
2022/05/29 13:28:59;;;;;;;;;;;;;;;;;;5015846;28;19928;-83
2022/05/29 13:31:25;;;;;;;;;;;;;;;;;;5040733;27;19921;-82
2022/05/29 13:33:50;;;;;;;;;;;;;;;;;;5016976;28;19952;-82
2022/05/29 13:36:34;;;;;;;;;;;;;;;;;;5019431;28;19925;-82
2022/05/29 13:39:00;;;;;;;;;;;;;;;;;;5018171;28;19918;-82
2022/05/29 13:41:26;;;;;;;;;;;;;;;;;;5014914;28;19944;-81
2022/05/29 13:43:52;;;;;;;;;;;;;;;;;;5031192;28;19924;-82
2022/05/29 13:46:20;;;;;;;;;;;;;;;;;;5021786;28;20012;-82
2022/05/29 13:49:01;;;;;;;;;;;;;;;;;;5020164;28;19921;-82
2022/05/29 13:51:28;;;;;;;;;;;;;;;;;;5031630;28;20389;-83
2022/05/29 13:54:03;;;;;;;;;;;;;;;;;;5015639;28;19917;-83
2022/05/29 13:56:48;;;;;;;;;;;;;;;;;;5032161;28;19917;-82
2022/05/29 14:04:55;;;;;;;;;;;;;;;;;;5048456;28;19967;-82
2022/05/29 14:07:27;;;;;;;;;;;;;;;;;;5014887;28;19917;-84
2022/05/29 14:10:05;;;;;;;;;;;;;;;;;;5015116;28;20041;-82
2022/05/29 14:12:31;;;;;;;;;;;;;;;;;;5030943;28;19925;-81
2022/05/29 14:14:57;;;;;;;;;;;;;;;;;;5037198;28;19935;-81
2022/05/29 14:17:28;;;;;;;;;;;;;;;;;;5024317;28;19918;-80
2022/05/29 14:19:56;;;;;;;;;;;;;;;;;;5012286;28;19925;-80
2022/05/29 14:25:07;;;;;;;;;;;;;;;;;;5008364;28;20375;-80
2022/05/29 14:28:03;;;;;;;;;;;;;;;;;;5013799;28;20018;-82
2022/05/29 14:30:46;;;;;;;;;;;;;;;;;;5014265;28;20228;-83
2022/05/29 14:33:30;;;;;;;;;;;;;;;;;;5028082;28;19918;-80
2022/05/29 14:36:00;;;;;;;;;;;;;;;;;;5048494;28;19925;-84
2022/05/29 14:38:44;;;;;;;;;;;;;;;;;;5016727;28;20016;-83
2022/05/29 14:41:14;;;;;;;;;;;;;;;;;;5033499;28;20024;-84
2022/05/29 14:43:40;;;;;;;;;;;;;;;;;;5022301;28;19918;-84
2022/05/29 14:49:17;;;;;;;;;;;;;;;;;;5039747;27;19918;-84
2022/05/29 14:51:46;;;;;;;;;;;;;;;;;;5023072;28;19918;-84
2022/05/29 14:54:15;;;;;;;;;;;;;;;;;;5016188;28;20407;-84
2022/05/29 14:56:51;;;;;;;;;;;;;;;;;;5014750;28;19918;-83
2022/05/29 14:59:21;;;;;;;;;;;;;;;;;;5032207;28;19922;-82
2022/05/29 15:01:53;;;;;;;;;;;;;;;;;;5015411;28;19989;-82
2022/05/29 15:04:21;;;;;;;;;;;;;;;;;;5014086;28;19918;-82
2022/05/29 15:12:21;;;;;;;;;;;;;;;;;;5030904;28;19921;-82
2022/05/29 15:14:47;;;;;;;;;;;;;;;;;;5013793;28;19917;-82
2022/05/29 15:17:20;;;;;;;;;;;;;;;;;;5014156;28;19936;-82
2022/05/29 15:25:21;;;;;;;;;;;;;;;;;;5051274;27;19924;-81
2022/05/29 15:27:48;;;;;;;;;;;;;;;;;;5039671;28;19918;-81
2022/05/29 15:30:17;;;;;;;;;;;;;;;;;;5039278;28;19925;-82
2022/05/29 15:32:47;;;;;;;;;;;;;;;;;;5037588;28;19950;-81
2022/05/29 15:35:28;;;;;;;;;;;;;;;;;;5035835;28;19966;-80
2022/05/29 15:37:59;;;;;;;;;;;;;;;;;;5035258;28;19917;-80
2022/05/29 15:40:40;;;;;;;;;;;;;;;;;;5052567;28;20303;-80
2022/05/29 15:43:06;;;;;;;;;;;;;;;;;;5053082;28;19921;-80
2022/05/29 15:45:52;;;;;;;;;;;;;;;;;;5016942;28;20552;-78
2022/05/29 15:48:18;;;;;;;;;;;;;;;;;;5029689;28;19925;-78
2022/05/29 15:50:52;;;;;;;;;;;;;;;;;;5048353;28;19918;-81
2022/05/29 15:53:18;;;;;;;;;;;;;;;;;;5016877;28;19953;-81
2022/05/29 15:55:57;;;;;;;;;;;;;;;;;;5050235;28;19918;-81
2022/05/29 15:58:34;;;;;;;;;;;;;;;;;;5032821;28;20385;-81
2022/05/29 16:01:06;;;;;;;;;;;;;;;;;;5018719;28;19956;-82
2022/05/29 16:03:34;;;;;;;;;;;;;;;;;;5029609;28;19944;-82
2022/05/29 16:06:12;;;;;;;;;;;;;;;;;;5013196;28;19922;-81
2022/05/29 16:08:38;;;;;;;;;;;;;;;;;;5047525;27;19981;-81
2022/05/29 16:11:06;;;;;;;;;;;;;;;;;;5016012;28;19985;-81
2022/05/29 16:13:44;;;;;;;;;;;;;;;;;;4999391;28;19917;-81
2022/05/29 16:16:13;;;;;;;;;;;;;;;;;;5016576;28;19917;-81
2022/05/29 16:18:42;;;;;;;;;;;;;;;;;;5015875;28;20386;-80
2022/05/29 16:21:16;;;;;;;;;;;;;;;;;;4999501;28;20034;-80
2022/05/29 16:23:45;;;;;;;;;;;;;;;;;;5015531;28;19924;-82
2022/05/29 16:26:12;;;;;;;;;;;;;;;;;;5017117;28;19924;-80
2022/05/29 16:28:43;;;;;;;;;;;;;;;;;;5032180;28;19967;-80
2022/05/29 16:31:12;;;;;;;;;;;;;;;;;;5017068;28;19924;-82
2022/05/29 16:33:41;;;;;;;;;;;;;;;;;;5032507;28;19943;-81
2022/05/29 16:36:17;;;;;;;;;;;;;;;;;;5016165;28;19917;-80
2022/05/29 16:50:14;;;;;;;;;;;;;;;;;;5047769;28;19925;-81
2022/05/29 16:52:40;;;;;;;;;;;;;;;;;;5048821;28;19917;-80
2022/05/29 16:55:08;;;;;;;;;;;;;;;;;;5031103;28;19956;-80
2022/05/29 16:57:48;;;;;;;;;;;;;;;;;;5031273;28;19921;-80
2022/05/29 17:00:23;;;;;;;;;;;;;;;;;;5024486;28;19929;-80
2022/05/29 17:03:02;;;;;;;;;;;;;;;;;;5010552;28;19918;-80
2022/05/29 17:05:31;;;;;;;;;;;;;;;;;;5047439;28;20397;-80
2022/05/29 17:08:10;;;;;;;;;;;;;;;;;;5034617;28;19913;-80
2022/05/29 17:10:52;;;;;;;;;;;;;;;;;;5051248;28;19918;-80
2022/05/29 17:13:17;;;;;;;;;;;;;;;;;;5014236;28;19917;-80
2022/05/29 17:15:43;;;;;;;;;;;;;;;;;;5014326;28;19917;-80
2022/05/29 17:18:08;;;;;;;;;;;;;;;;;;5015651;28;19990;-80
2022/05/29 17:20:37;;;;;;;;;;;;;;;;;;5046817;28;19943;-80
2022/05/29 17:23:23;;;;;;;;;;;;;;;;;;5013593;28;20397;-80
2022/05/29 17:25:55;;;;;;;;;;;;;;;;;;5030865;28;19939;-80
2022/05/29 17:28:42;;;;;;;;;;;;;;;;;;5030838;28;20004;-80
2022/05/29 17:31:15;;;;;;;;;;;;;;;;;;5047375;28;19921;-81
2022/05/29 17:33:41;;;;;;;;;;;;;;;;;;5013812;28;20283;-81
2022/05/29 17:36:13;;;;;;;;;;;;;;;;;;5013342;28;19924;-81
2022/05/29 17:38:44;;;;;;;;;;;;;;;;;;4997250;28;19921;-80
2022/05/29 17:41:10;;;;;;;;;;;;;;;;;;5015060;28;19921;-82
2022/05/29 17:43:35;;;;;;;;;;;;;;;;;;5019992;28;19918;-79
2022/05/29 17:46:24;;;;;;;;;;;;;;;;;;5016243;28;19928;-79
2022/05/29 17:48:55;;;;;;;;;;;;;;;;;;4991350;28;20008;-80
2022/05/29 17:51:36;;;;;;;;;;;;;;;;;;5023833;28;19917;-81
2022/05/29 17:54:17;;;;;;;;;;;;;;;;;;5005775;28;19917;-82
2022/05/29 17:56:43;;;;;;;;;;;;;;;;;;5023613;28;19918;-80
2022/05/29 17:59:09;;;;;;;;;;;;;;;;;;5017373;28;19926;-83
2022/05/29 18:01:35;;;;;;;;;;;;;;;;;;5019876;28;20034;-83
2022/05/29 18:04:01;;;;;;;;;;;;;;;;;;5017507;28;19932;-80
2022/05/29 18:06:27;;;;;;;;;;;;;;;;;;5034445;28;19918;-80
2022/05/29 18:08:52;;;;;;;;;;;;;;;;;;5000181;28;19962;-80
2022/05/29 18:11:20;;;;;;;;;;;;;;;;;;5013275;28;19929;-81
2022/05/29 18:13:45;;;;;;;;;;;;;;;;;;5028034;28;19917;-80
2022/05/29 18:16:12;;;;;;;;;;;;;;;;;;5018746;28;19970;-81
2022/05/29 18:18:37;;;;;;;;;;;;;;;;;;5068990;28;19925;-81
2022/05/29 18:21:03;;;;;;;;;;;;;;;;;;5035745;28;20016;-81